Time;durP1;ratioP1;P1;durP2;ratioP2;P2;SDS_P1;SDS_P2;PMS_P1;PMS_P2;Temp;Humidity;BMP_temperature;BMP_pressure;BME280_temperature;BME280_humidity;BME280_pressure;Samples;Min_cycle;Max_cycle;Signal;HPM_P1;HPM_P2
2022/03/21 00:00:27;;;;;;;17.50;7.57;;;;;;;21.26;9.40;100461.03;5086874;28;20040;-75
2022/03/21 00:02:55;;;;;;;19.33;7.60;;;;;;;20.99;9.83;100467.44;5092165;28;20047;-75
2022/03/21 00:05:21;;;;;;;18.95;7.05;;;;;;;21.12;9.85;100460.66;5088647;28;20085;-75
2022/03/21 00:07:47;;;;;;;17.92;6.88;;;;;;;21.01;9.77;100459.50;5087176;28;20547;-75
2022/03/21 00:10:13;;;;;;;20.58;7.38;;;;;;;20.34;10.17;100467.88;5089729;28;20549;-75
2022/03/21 00:12:40;;;;;;;17.92;7.07;;;;;;;20.15;10.25;100465.66;5089521;28;20066;-75
2022/03/21 00:15:09;;;;;;;14.75;6.60;;;;;;;20.61;9.85;100467.09;5090020;28;20090;-75
2022/03/21 00:17:41;;;;;;;15.88;6.63;;;;;;;20.97;9.83;100463.38;5088998;28;20426;-74
2022/03/21 00:20:16;;;;;;;15.10;7.55;;;;;;;20.81;9.88;100454.97;5088583;28;20401;-75
2022/03/21 00:22:42;;;;;;;16.33;6.90;;;;;;;20.70;9.96;100453.81;5086302;28;20033;-75
2022/03/21 00:25:09;;;;;;;16.08;6.38;;;;;;;21.00;9.70;100455.13;5087143;28;20028;-75
2022/03/21 00:27:37;;;;;;;17.45;7.90;;;;;;;21.39;9.49;100449.78;5088264;28;20097;-75
2022/03/21 00:30:08;;;;;;;15.75;7.05;;;;;;;21.51;9.25;100447.75;5085495;28;20066;-75
2022/03/21 00:32:35;;;;;;;13.50;6.10;;;;;;;21.65;9.17;100442.53;5088954;28;20024;-75
2022/03/21 00:35:01;;;;;;;14.43;6.40;;;;;;;21.62;9.16;100450.81;5087653;28;20063;-75
2022/03/21 00:37:28;;;;;;;16.42;6.10;;;;;;;21.55;9.39;100445.84;5090642;28;20085;-74
2022/03/21 00:39:54;;;;;;;15.63;6.40;;;;;;;21.66;9.20;100448.91;5091587;28;20023;-75
2022/03/21 00:42:21;;;;;;;16.35;6.78;;;;;;;21.85;9.17;100435.03;5089027;28;20048;-75
2022/03/21 00:44:48;;;;;;;13.98;6.13;;;;;;;21.78;9.27;100434.84;5086231;28;20024;-75
2022/03/21 00:47:16;;;;;;;16.88;6.78;;;;;;;21.60;9.33;100433.59;5085696;28;20055;-74
2022/03/21 00:49:44;;;;;;;17.52;7.07;;;;;;;21.74;9.23;100443.16;5083772;28;20044;-75
2022/03/21 00:52:10;;;;;;;18.50;7.72;;;;;;;21.57;9.56;100437.91;5090716;28;20028;-75
2022/03/21 00:54:36;;;;;;;19.55;6.82;;;;;;;21.48;9.59;100447.63;5088265;28;20032;-75
2022/03/21 00:57:03;;;;;;;14.35;6.93;;;;;;;20.73;10.32;100430.78;5086094;28;20102;-75
2022/03/21 00:59:29;;;;;;;18.48;7.00;;;;;;;20.41;10.71;100427.06;5090409;28;20058;-75
2022/03/21 01:01:55;;;;;;;16.08;6.47;;;;;;;20.65;10.29;100429.75;5086925;28;20098;-75
2022/03/21 01:04:21;;;;;;;16.08;6.90;;;;;;;20.80;10.16;100432.94;5089039;28;20079;-75
2022/03/21 01:06:47;;;;;;;15.98;6.88;;;;;;;21.09;9.61;100430.66;5088268;28;20024;-75
2022/03/21 01:09:17;;;;;;;11.32;5.47;;;;;;;20.63;10.06;100434.09;5088264;28;20036;-75
2022/03/21 01:11:43;;;;;;;16.40;6.18;;;;;;;20.79;9.72;100428.56;5085999;28;20025;-75
2022/03/21 01:14:10;;;;;;;18.88;7.05;;;;;;;21.05;9.90;100432.50;5088672;28;20056;-75
2022/03/21 01:16:37;;;;;;;16.10;7.00;;;;;;;20.88;10.08;100432.81;5087094;28;20439;-75
2022/03/21 01:19:04;;;;;;;21.05;7.45;;;;;;;20.41;10.38;100429.03;5090203;28;20040;-75
2022/03/21 01:21:31;;;;;;;19.08;8.00;;;;;;;20.22;10.94;100428.81;5087471;28;20482;-75
2022/03/21 01:23:57;;;;;;;18.95;8.13;;;;;;;20.41;10.49;100417.88;5088737;28;20027;-75
2022/03/21 01:26:23;;;;;;;17.88;7.15;;;;;;;19.59;10.88;100417.22;5087596;28;20382;-75
2022/03/21 01:28:49;;;;;;;17.67;7.43;;;;;;;19.70;10.63;100420.34;5087493;28;20032;-75
2022/03/21 01:31:15;;;;;;;18.48;6.47;;;;;;;20.33;10.15;100416.00;5088027;28;20040;-75
2022/03/21 01:33:41;;;;;;;20.73;7.85;;;;;;;20.86;9.84;100420.38;5087674;28;20059;-75
2022/03/21 01:36:09;;;;;;;18.27;6.97;;;;;;;20.60;10.08;100409.66;5088660;28;20043;-75
2022/03/21 01:38:35;;;;;;;18.40;6.60;;;;;;;20.13;10.30;100415.00;5085000;28;20043;-75
2022/03/21 01:41:01;;;;;;;19.25;7.40;;;;;;;19.85;10.42;100416.88;5089630;28;20044;-75
2022/03/21 01:43:28;;;;;;;20.20;6.90;;;;;;;19.65;10.79;100413.03;5089883;28;20028;-74
2022/03/21 01:45:54;;;;;;;17.48;7.22;;;;;;;20.02;10.44;100420.22;5089210;28;20503;-74
2022/03/21 01:48:20;;;;;;;19.38;7.32;;;;;;;20.17;10.29;100420.66;5089810;28;20111;-74
2022/03/21 01:50:46;;;;;;;20.30;7.82;;;;;;;20.58;9.96;100418.38;5084458;28;20036;-75
2022/03/21 01:55:58;;;;;;;18.27;7.45;;;;;;;21.08;10.00;100422.63;5086392;28;20086;-74
2022/03/21 01:58:27;;;;;;;14.05;6.85;;;;;;;21.07;9.77;100413.44;5085886;28;20035;-74
2022/03/21 02:00:53;;;;;;;19.02;7.95;;;;;;;21.14;9.79;100412.81;5083313;28;20047;-75
2022/03/21 02:03:20;;;;;;;18.58;8.18;;;;;;;21.21;9.97;100411.00;5088580;28;20040;-76
2022/03/21 02:05:49;;;;;;;19.55;7.82;;;;;;;21.04;10.09;100404.94;5082875;28;20505;-74
2022/03/21 02:08:17;;;;;;;21.35;8.40;;;;;;;21.05;10.20;100410.16;5086854;28;20065;-74
2022/03/21 02:10:44;;;;;;;25.40;8.75;;;;;;;20.97;10.08;100404.72;5085744;28;20044;-75
2022/03/21 02:13:11;;;;;;;22.58;9.07;;;;;;;21.11;10.04;100405.16;5090525;28;20074;-74
2022/03/21 02:15:37;;;;;;;25.88;11.73;;;;;;;21.08;10.28;100412.25;5086896;28;20393;-74
2022/03/21 02:18:04;;;;;;;24.98;10.00;;;;;;;21.08;10.09;100411.44;5086741;28;20097;-74
2022/03/21 02:20:35;;;;;;;26.17;9.18;;;;;;;21.04;10.07;100416.09;5074915;28;20549;-74
2022/03/21 02:23:16;;;;;;;27.10;8.88;;;;;;;21.13;10.08;100416.78;5089291;28;20032;-75
2022/03/21 02:25:43;;;;;;;25.05;9.18;;;;;;;20.79;10.54;100415.41;5092676;28;20602;-74
2022/03/21 02:28:15;;;;;;;23.67;9.95;;;;;;;20.24;10.70;100424.53;5071444;28;20092;-75
2022/03/21 02:30:48;;;;;;;21.48;8.93;;;;;;;20.03;10.84;100423.81;5089976;28;20500;-73
2022/03/21 02:33:17;;;;;;;22.58;9.48;;;;;;;19.95;11.08;100428.34;5089035;28;20032;-74
2022/03/21 02:35:49;;;;;;;23.00;9.50;;;;;;;20.15;10.72;100423.81;5071685;28;20103;-74
2022/03/21 02:38:17;;;;;;;23.98;9.90;;;;;;;20.51;10.62;100425.75;5090044;28;20105;-74
2022/03/21 02:40:43;;;;;;;23.50;9.55;;;;;;;20.56;10.75;100420.72;5089758;28;20032;-74
2022/03/21 02:43:09;;;;;;;24.33;8.60;;;;;;;19.98;11.03;100427.66;5070564;28;22011;-74
2022/03/21 02:45:35;;;;;;;25.30;9.75;;;;;;;20.14;10.83;100436.13;5086518;28;20032;-74
2022/03/21 02:48:01;;;;;;;23.58;9.85;;;;;;;20.42;10.38;100431.44;5086208;28;20031;-74
2022/03/21 02:50:34;;;;;;;22.48;9.80;;;;;;;20.63;10.11;100420.13;5084245;28;20044;-74
2022/03/21 02:53:02;;;;;;;25.25;9.30;;;;;;;20.59;10.65;100424.78;5084165;28;20086;-74
2022/03/21 02:55:28;;;;;;;25.90;10.27;;;;;;;19.86;11.19;100432.47;5084507;28;20033;-74
2022/03/21 02:57:54;;;;;;;24.98;9.32;;;;;;;20.00;10.84;100430.09;5085547;28;20032;-74
2022/03/21 03:00:20;;;;;;;25.30;9.88;;;;;;;20.30;10.74;100428.72;5085244;28;20024;-74
2022/03/21 03:02:46;;;;;;;24.10;9.93;;;;;;;20.43;11.19;100421.09;5085744;28;20024;-74
2022/03/21 03:05:12;;;;;;;25.02;10.07;;;;;;;20.64;10.74;100432.91;5086365;28;20059;-74
2022/03/21 03:07:38;;;;;;;26.90;10.13;;;;;;;20.67;10.50;100435.00;5082620;28;20032;-74
2022/03/21 03:10:05;;;;;;;25.73;10.68;;;;;;;20.72;10.64;100436.72;5086041;28;20086;-74
2022/03/21 03:12:32;;;;;;;24.23;7.82;;;;;;;19.80;11.05;100431.88;5084862;28;20052;-74
2022/03/21 03:14:58;;;;;;;24.00;9.65;;;;;;;19.45;11.39;100432.63;5086326;28;20028;-78
2022/03/21 03:17:24;;;;;;;21.00;9.60;;;;;;;19.50;11.24;100427.66;5083393;28;20461;-74
2022/03/21 03:19:50;;;;;;;24.23;8.48;;;;;;;19.59;11.16;100433.94;5086467;28;20024;-75
2022/03/21 03:22:18;;;;;;;22.02;9.38;;;;;;;20.02;10.78;100425.00;5086178;28;20389;-75
2022/03/21 03:24:46;;;;;;;24.17;10.27;;;;;;;20.41;10.68;100434.59;5085547;28;20020;-75
2022/03/21 03:27:12;;;;;;;25.70;11.07;;;;;;;20.45;10.61;100427.97;5084849;28;20086;-74
2022/03/21 03:29:38;;;;;;;27.85;9.80;;;;;;;20.45;10.62;100436.34;5070720;28;20032;-74
2022/03/21 03:32:05;;;;;;;25.33;9.18;;;;;;;20.11;10.79;100438.81;5087752;28;20028;-74
2022/03/21 03:34:34;;;;;;;22.83;8.65;;;;;;;20.04;10.63;100436.63;5073696;28;20501;-74
2022/03/21 03:37:01;;;;;;;23.13;9.57;;;;;;;20.30;10.70;100433.47;5089644;28;20048;-74
2022/03/21 03:39:29;;;;;;;27.60;11.48;;;;;;;20.31;10.77;100440.66;5096189;28;20032;-74
2022/03/21 03:41:55;;;;;;;29.75;10.85;;;;;;;20.23;10.86;100436.88;5094123;28;20438;-74
2022/03/21 03:44:23;;;;;;;32.30;13.32;;;;;;;20.13;11.12;100437.31;5075533;28;20024;-74
2022/03/21 03:46:49;;;;;;;33.75;13.20;;;;;;;19.76;11.22;100433.72;5089648;28;20074;-75
2022/03/21 03:49:15;;;;;;;26.55;10.45;;;;;;;19.79;11.05;100437.78;5076057;28;20489;-74
2022/03/21 03:51:41;;;;;;;24.30;10.00;;;;;;;19.82;11.13;100434.28;5087545;28;20505;-75
2022/03/21 03:54:07;;;;;;;29.27;11.23;;;;;;;20.03;10.84;100429.41;5090229;28;20054;-74
2022/03/21 03:56:33;;;;;;;27.98;11.07;;;;;;;20.05;10.85;100431.88;5091656;28;20036;-74
2022/03/21 03:58:59;;;;;;;26.27;10.77;;;;;;;20.10;10.89;100432.41;5091718;28;20117;-74
2022/03/21 04:01:26;;;;;;;24.25;10.40;;;;;;;20.30;10.80;100427.91;5090618;28;20024;-74
2022/03/21 04:03:52;;;;;;;28.50;11.93;;;;;;;20.33;10.79;100439.16;5089617;28;21938;-74
2022/03/21 04:06:21;;;;;;;30.90;11.15;;;;;;;20.50;10.60;100432.47;5088949;28;20035;-74
2022/03/21 04:08:49;;;;;;;29.02;10.98;;;;;;;20.60;10.47;100434.78;5084896;28;20043;-74
2022/03/21 04:11:15;;;;;;;26.70;10.95;;;;;;;20.50;10.67;100432.47;5084790;28;20168;-74
2022/03/21 04:13:42;;;;;;;23.30;9.55;;;;;;;20.55;10.61;100437.81;5086619;28;20046;-74
2022/03/21 04:16:09;;;;;;;28.55;12.05;;;;;;;20.14;10.88;100449.28;5089760;28;20094;-75
2022/03/21 04:18:36;;;;;;;32.25;12.20;;;;;;;19.87;10.95;100442.44;5087734;28;20077;-74
2022/03/21 04:21:03;;;;;;;31.52;11.55;;;;;;;19.85;10.96;100441.97;5085288;28;20485;-74
2022/03/21 04:23:30;;;;;;;32.67;13.25;;;;;;;20.11;10.89;100450.78;5087658;28;20043;-74
2022/03/21 04:25:56;;;;;;;41.70;14.23;;;;;;;20.27;10.73;100437.78;5085676;28;20024;-75
2022/03/21 04:28:22;;;;;;;35.65;13.13;;;;;;;20.32;10.70;100447.88;5072796;28;20420;-74
2022/03/21 04:30:48;;;;;;;31.08;12.73;;;;;;;20.04;10.88;100447.78;5090078;28;20055;-74
2022/03/21 04:33:14;;;;;;;31.40;13.65;;;;;;;20.16;10.74;100444.16;5089417;28;20046;-74
2022/03/21 04:35:42;;;;;;;27.52;10.25;;;;;;;19.90;10.95;100441.75;5087493;28;20075;-74
2022/03/21 04:38:14;;;;;;;27.77;11.18;;;;;;;19.91;11.00;100440.56;5085976;28;20020;-74
2022/03/21 04:40:45;;;;;;;32.33;12.25;;;;;;;20.09;10.61;100444.75;5083999;28;20490;-74
2022/03/21 04:43:13;;;;;;;30.85;11.63;;;;;;;20.15;10.69;100446.13;5089623;28;20077;-74
2022/03/21 04:45:40;;;;;;;33.97;12.15;;;;;;;20.05;10.82;100445.81;5098133;28;20031;-74
2022/03/21 04:48:06;;;;;;;30.45;11.73;;;;;;;19.99;10.66;100442.44;5089450;28;20039;-74
2022/03/21 04:50:33;;;;;;;31.10;12.38;;;;;;;20.12;10.75;100443.25;5073571;28;20028;-74
2022/03/21 04:53:00;;;;;;;25.65;10.65;;;;;;;20.24;10.49;100443.22;5083948;28;20102;-74
2022/03/21 04:55:27;;;;;;;25.45;10.18;;;;;;;20.45;10.54;100439.13;5080956;28;20127;-74
2022/03/21 04:57:53;;;;;;;27.10;10.88;;;;;;;19.68;11.62;100444.97;5083734;28;20044;-74
2022/03/21 05:00:19;;;;;;;27.05;10.82;;;;;;;19.28;11.81;100444.75;5087004;28;20103;-73
2022/03/21 05:02:45;;;;;;;29.60;10.85;;;;;;;19.40;11.60;100446.78;5086276;28;20025;-74
2022/03/21 05:05:12;;;;;;;24.73;9.65;;;;;;;19.58;11.18;100451.03;5088077;28;20067;-74
2022/03/21 05:07:45;;;;;;;30.15;11.27;;;;;;;20.05;11.04;100451.38;5090701;28;20030;-74
2022/03/21 05:10:14;;;;;;;29.55;11.00;;;;;;;20.44;10.74;100448.66;5083615;28;20044;-74
2022/03/21 05:12:40;;;;;;;31.05;10.43;;;;;;;20.54;10.75;100445.38;5095112;28;20042;-74
2022/03/21 05:15:07;;;;;;;26.17;10.50;;;;;;;20.63;10.73;100446.03;5093868;28;20024;-74
2022/03/21 05:17:37;;;;;;;27.85;9.90;;;;;;;20.83;10.54;100446.22;5086069;28;20055;-74
2022/03/21 05:20:10;;;;;;;19.95;8.23;;;;;;;20.65;10.95;100452.09;5078042;28;20447;-74
2022/03/21 05:22:36;;;;;;;23.08;8.70;;;;;;;20.55;11.14;100458.19;5087849;28;20060;-74
2022/03/21 05:36:01;;;;;;;22.75;9.27;;;;;;;19.21;12.44;100464.81;5082776;28;20047;-77
2022/03/21 05:38:29;;;;;;;24.50;8.82;;;;;;;19.35;12.52;100463.72;5089414;28;20129;-74
2022/03/21 05:40:59;;;;;;;19.73;8.43;;;;;;;19.55;12.22;100466.44;5084611;28;20028;-75
2022/03/21 05:43:29;;;;;;;23.27;9.15;;;;;;;20.17;11.82;100468.91;5095305;28;20035;-74
2022/03/21 05:45:56;;;;;;;25.00;9.60;;;;;;;20.84;11.58;100464.59;5073444;28;20560;-75
2022/03/21 05:51:08;;;;;;;24.00;10.27;;;;;;;21.70;10.92;100475.00;5093080;28;20067;-75
2022/03/21 05:53:34;;;;;;;25.95;10.23;;;;;;;21.69;11.42;100479.75;5094229;28;20092;-75
2022/03/21 05:56:00;;;;;;;27.83;10.95;;;;;;;20.94;11.89;100476.06;5093876;28;20038;-75
2022/03/21 05:58:27;;;;;;;30.00;12.18;;;;;;;20.62;12.54;100488.28;5083227;28;20103;-75
2022/03/21 06:00:53;;;;;;;21.90;10.30;;;;;;;20.71;12.11;100483.38;5071891;28;20059;-75
2022/03/21 06:03:19;;;;;;;34.00;12.35;;;;;;;20.86;12.33;100484.59;5086250;28;20024;-75
2022/03/21 06:05:46;;;;;;;25.05;10.73;;;;;;;21.28;11.83;100481.06;5091046;28;20047;-75
2022/03/21 06:08:13;;;;;;;26.85;11.10;;;;;;;21.86;11.77;100489.81;5092508;28;20032;-75
2022/03/21 06:10:39;;;;;;;25.77;11.25;;;;;;;21.42;12.47;100491.00;5093006;28;20031;-75
2022/03/21 06:13:06;;;;;;;24.05;10.93;;;;;;;21.13;12.50;100483.81;5093581;28;20024;-75
2022/03/21 06:15:36;;;;;;;31.35;10.75;;;;;;;21.01;12.81;100484.66;5090304;28;20107;-75
2022/03/21 06:18:08;;;;;;;24.38;10.48;;;;;;;20.68;12.78;100492.44;5085993;28;20055;-77
2022/03/21 06:20:34;;;;;;;26.08;10.00;;;;;;;20.62;12.69;100489.09;5085426;28;20040;-75
2022/03/21 06:23:01;;;;;;;22.65;9.27;;;;;;;21.07;12.40;100479.66;5087694;28;20501;-75
2022/03/21 06:25:27;;;;;;;23.75;9.85;;;;;;;21.45;11.91;100482.69;5086554;28;20426;-75
2022/03/21 06:27:53;;;;;;;21.42;9.43;;;;;;;21.76;12.07;100487.53;5087878;28;20090;-75
2022/03/21 06:30:19;;;;;;;24.38;9.70;;;;;;;22.04;11.72;100485.47;5086602;28;20044;-75
2022/03/21 06:32:45;;;;;;;20.75;9.85;;;;;;;22.10;11.35;100481.19;5086299;28;20118;-75
2022/03/21 06:35:12;;;;;;;20.63;10.23;;;;;;;21.66;11.66;100479.66;5082155;28;20037;-75
2022/03/21 06:37:39;;;;;;;25.88;9.73;;;;;;;22.04;11.65;100488.25;5088807;28;20516;-75
2022/03/21 06:40:07;;;;;;;25.92;10.32;;;;;;;22.17;11.69;100483.38;5086607;28;20112;-75
2022/03/21 06:42:33;;;;;;;21.98;8.90;;;;;;;22.00;11.35;100481.78;5086593;28;20111;-77
2022/03/21 06:44:59;;;;;;;24.15;11.52;;;;;;;20.64;12.02;100485.94;5085982;28;20111;-75
2022/03/21 06:47:26;;;;;;;23.52;11.25;;;;;;;19.61;13.08;100484.56;5088834;28;20444;-76
2022/03/21 06:49:52;;;;;;;25.85;11.85;;;;;;;19.99;12.79;100490.66;5076640;28;20040;-77
2022/03/21 06:52:19;;;;;;;23.20;11.10;;;;;;;20.43;13.31;100496.44;5083670;28;20104;-76
2022/03/21 06:54:48;;;;;;;22.05;10.95;;;;;;;19.90;13.31;100487.16;5071227;28;20044;-77
2022/03/21 06:57:16;;;;;;;20.45;9.85;;;;;;;21.18;12.87;100489.97;5085318;28;20032;-76
2022/03/21 06:59:44;;;;;;;23.35;10.88;;;;;;;21.31;12.39;100488.72;5088364;28;20044;-75
2022/03/21 07:02:10;;;;;;;23.33;9.05;;;;;;;21.48;12.20;100492.34;5086276;28;20452;-75
2022/03/21 07:04:36;;;;;;;28.55;12.13;;;;;;;21.32;12.86;100492.34;5087926;28;20028;-75
2022/03/21 07:07:02;;;;;;;20.83;9.73;;;;;;;22.48;11.79;100491.69;5086776;28;20445;-75
2022/03/21 07:09:28;;;;;;;16.35;8.02;;;;;;;23.46;10.60;100487.41;5079604;28;20044;-75
2022/03/21 07:11:54;;;;;;;19.88;9.48;;;;;;;23.31;11.04;100479.91;5079500;28;20040;-75
2022/03/21 07:14:21;;;;;;;26.02;11.02;;;;;;;21.98;11.71;100492.53;5076842;28;20384;-75
2022/03/21 07:16:48;;;;;;;16.15;8.55;;;;;;;22.35;11.28;100487.41;5091494;28;20043;-75
2022/03/21 07:19:14;;;;;;;24.38;9.45;;;;;;;22.88;11.15;100483.81;5082223;28;20024;-75
2022/03/21 07:21:40;;;;;;;17.30;8.35;;;;;;;23.85;10.53;100486.13;5092544;28;20043;-75
2022/03/21 07:24:07;;;;;;;16.35;7.55;;;;;;;24.14;10.21;100481.00;5091602;28;20028;-75
2022/03/21 07:26:35;;;;;;;17.77;8.02;;;;;;;23.51;10.19;100478.69;5092707;28;20052;-75
2022/03/21 07:29:04;;;;;;;12.43;6.35;;;;;;;22.85;11.24;100489.38;5093505;28;20074;-75
2022/03/21 07:31:31;;;;;;;13.18;7.35;;;;;;;23.59;10.86;100483.28;5091940;28;20035;-74
2022/03/21 07:33:57;;;;;;;14.05;6.85;;;;;;;24.64;9.69;100478.56;5092969;28;20032;-75
2022/03/21 07:36:23;;;;;;;14.35;7.13;;;;;;;24.88;9.47;100482.91;5091998;28;20150;-75
2022/03/21 07:38:49;;;;;;;12.32;6.45;;;;;;;25.09;9.55;100477.56;5093197;28;20062;-75
2022/03/21 07:41:15;;;;;;;15.63;7.80;;;;;;;24.34;9.84;100483.31;5092749;28;20057;-75
2022/03/21 07:43:41;;;;;;;12.45;6.53;;;;;;;25.20;9.42;100480.50;5084650;28;20036;-75
2022/03/21 07:48:53;;;;;;;17.45;8.02;;;;;;;23.22;10.59;100493.34;5083472;28;20044;-75
2022/03/21 07:51:19;;;;;;;12.32;5.90;;;;;;;24.11;10.22;100495.81;5084180;28;20047;-76
2022/03/21 07:53:45;;;;;;;19.08;10.15;;;;;;;22.94;10.80;100496.34;5080821;28;20110;-75
2022/03/21 07:56:11;;;;;;;15.40;7.18;;;;;;;22.83;11.33;100500.09;5081065;28;20047;-76
2022/03/21 07:58:38;;;;;;;10.82;5.40;;;;;;;24.39;10.14;100493.44;5080489;28;20394;-76
2022/03/21 08:01:04;;;;;;;12.48;6.10;;;;;;;25.38;9.25;100493.59;5080116;28;20386;-76
2022/03/21 08:03:30;;;;;;;12.27;6.97;;;;;;;24.89;9.47;100492.16;5057324;28;20520;-76
2022/03/21 08:05:59;;;;;;;11.07;6.18;;;;;;;25.32;9.30;100489.47;5083105;28;20901;-75
2022/03/21 08:08:29;;;;;;;11.13;6.00;;;;;;;25.81;9.30;100491.22;5083483;28;20032;-76
2022/03/21 08:10:56;;;;;;;8.88;4.38;;;;;;;25.58;9.22;100479.34;5081905;28;20089;-76
2022/03/21 08:13:22;;;;;;;9.15;5.57;;;;;;;25.56;9.28;100485.34;5084588;28;20027;-76
2022/03/21 08:15:49;;;;;;;8.25;4.90;;;;;;;25.35;9.09;100480.28;5079913;28;20017;-76
2022/03/21 08:18:15;;;;;;;10.52;6.03;;;;;;;24.65;9.18;100468.94;5080900;28;20119;-76
2022/03/21 08:20:43;;;;;;;8.68;5.40;;;;;;;24.39;9.70;100476.56;5084593;28;20108;-75
2022/03/21 08:23:12;;;;;;;8.90;5.05;;;;;;;24.76;9.78;100473.91;5083613;28;20032;-75
2022/03/21 08:25:41;;;;;;;10.63;5.88;;;;;;;22.30;10.26;100482.09;5082879;28;20033;-76
2022/03/21 08:28:09;;;;;;;7.97;4.57;;;;;;;22.92;10.58;100472.72;5086659;28;20052;-76
2022/03/21 08:30:36;;;;;;;10.68;5.30;;;;;;;23.51;9.71;100466.66;5088111;28;20032;-75
2022/03/21 08:33:06;;;;;;;6.20;4.28;;;;;;;23.40;10.40;100466.50;5087564;28;20492;-76
2022/03/21 08:35:33;;;;;;;7.65;4.35;;;;;;;24.49;9.29;100465.50;5083474;28;20031;-76
2022/03/21 08:37:59;;;;;;;6.28;3.72;;;;;;;25.42;9.22;100465.47;5087040;28;20130;-76
2022/03/21 08:40:26;;;;;;;7.00;4.43;;;;;;;25.68;8.44;100459.75;5082588;28;20033;-76
2022/03/21 08:42:52;;;;;;;10.65;4.35;;;;;;;25.12;9.00;100462.75;5086962;28;20484;-76
2022/03/21 08:45:21;;;;;;;7.85;4.63;;;;;;;24.45;9.35;100467.47;5080555;28;20020;-76
2022/03/21 08:47:50;;;;;;;7.35;3.55;;;;;;;24.93;8.70;100459.28;5082308;28;20040;-77
2022/03/21 08:50:16;;;;;;;6.75;3.78;;;;;;;25.31;8.75;100459.75;5085526;28;20028;-76
2022/03/21 08:52:42;;;;;;;7.25;3.80;;;;;;;25.79;8.45;100459.84;5070757;28;20064;-76
2022/03/21 08:55:09;;;;;;;5.35;3.67;;;;;;;26.46;8.75;100463.19;5078567;28;20151;-76
2022/03/21 08:57:36;;;;;;;5.28;2.70;;;;;;;27.02;8.14;100465.53;5082677;28;20110;-76
2022/03/21 09:00:05;;;;;;;4.60;3.33;;;;;;;26.55;7.69;100458.81;5068002;28;20039;-76
2022/03/21 09:02:32;;;;;;;7.97;5.40;;;;;;;23.49;10.10;100453.03;5085438;28;20032;-76
2022/03/21 09:04:58;;;;;;;7.25;4.75;;;;;;;23.29;9.57;100454.25;5065993;28;20040;-76
2022/03/21 09:07:25;;;;;;;10.70;4.45;;;;;;;23.13;10.19;100451.50;5085285;28;20069;-76
2022/03/21 09:09:51;;;;;;;5.63;3.40;;;;;;;21.74;10.77;100467.50;5060083;28;20734;-76
2022/03/21 09:12:17;;;;;;;5.60;3.85;;;;;;;23.78;10.05;100451.53;5083587;28;20021;-76
2022/03/21 09:14:43;;;;;;;7.30;4.10;;;;;;;23.80;10.26;100449.16;5081860;28;20036;-76
2022/03/21 09:17:10;;;;;;;5.00;3.25;;;;;;;24.55;8.91;100452.75;5078729;28;20032;-76
2022/03/21 09:19:36;;;;;;;7.20;3.28;;;;;;;25.04;8.00;100443.38;5078652;28;20039;-77
2022/03/21 09:22:03;;;;;;;9.23;4.45;;;;;;;24.87;8.71;100452.41;5082314;28;20032;-76
2022/03/21 09:24:29;;;;;;;5.68;3.50;;;;;;;24.09;9.04;100451.25;5056019;28;20035;-76
2022/03/21 09:26:56;;;;;;;8.80;5.35;;;;;;;21.09;11.17;100453.00;5086167;28;20044;-76
2022/03/21 09:29:23;;;;;;;7.90;5.45;;;;;;;20.54;11.71;100450.97;5082235;28;20086;-76
2022/03/21 09:31:49;;;;;;;6.38;3.97;;;;;;;20.49;11.51;100448.41;5084279;28;20376;-77
2022/03/21 09:34:17;;;;;;;5.78;3.65;;;;;;;23.64;9.95;100449.28;5082133;28;20028;-78
2022/03/21 09:36:44;;;;;;;7.63;4.80;;;;;;;23.74;9.69;100442.22;5078998;28;20083;-76
2022/03/21 09:39:12;;;;;;;5.75;3.13;;;;;;;23.46;9.14;100439.75;5078041;28;20023;-77
2022/03/21 09:41:38;;;;;;;13.48;4.18;;;;;;;23.73;9.51;100432.22;5083962;28;20034;-77
2022/03/21 09:44:09;;;;;;;6.18;3.45;;;;;;;24.08;9.18;100437.63;5082515;28;20077;-77
2022/03/21 09:46:37;;;;;;;6.03;3.83;;;;;;;23.61;9.52;100433.22;5081347;28;20040;-77
2022/03/21 09:49:05;;;;;;;7.75;3.75;;;;;;;24.64;8.91;100438.44;5080008;28;20103;-77
2022/03/21 09:51:32;;;;;;;5.53;3.53;;;;;;;24.27;9.03;100441.09;5081803;28;20094;-77
2022/03/21 09:54:00;;;;;;;6.30;3.60;;;;;;;25.09;9.13;100431.75;5081592;28;21081;-76
2022/03/21 09:56:27;;;;;;;6.43;3.60;;;;;;;25.65;8.15;100425.97;5084292;28;20089;-77
2022/03/21 09:59:03;;;;;;;8.88;4.50;;;;;;;24.72;8.74;100438.13;5078011;28;20039;-77
2022/03/21 10:01:32;;;;;;;10.38;5.90;;;;;;;21.92;10.18;100426.81;5090191;28;20123;-77
2022/03/21 10:04:00;;;;;;;8.07;4.80;;;;;;;23.47;9.92;100424.56;5082330;28;20029;-77
2022/03/21 10:06:31;;;;;;;11.88;5.10;;;;;;;22.63;10.34;100429.28;5082524;28;20058;-77
2022/03/21 10:09:19;;;;;;;6.22;4.40;;;;;;;22.30;10.92;100415.75;5078078;28;20025;-76
2022/03/21 10:11:50;;;;;;;10.00;5.28;;;;;;;22.14;11.80;100423.38;5075639;28;20050;-76
2022/03/21 10:14:33;;;;;;;8.40;4.93;;;;;;;24.02;10.52;100423.06;5085558;28;20113;-77
2022/03/21 10:17:03;;;;;;;8.07;4.72;;;;;;;25.63;9.14;100412.25;5070619;28;20036;-77
2022/03/21 10:19:45;;;;;;;7.70;4.63;;;;;;;24.34;9.28;100412.34;5078582;28;20447;-77
2022/03/21 10:22:14;;;;;;;10.80;5.60;;;;;;;25.03;9.20;100406.03;5081012;28;20035;-77
2022/03/21 10:24:45;;;;;;;11.77;4.82;;;;;;;24.12;9.37;100400.00;5082762;28;20110;-77
2022/03/21 10:27:34;;;;;;;7.00;4.68;;;;;;;24.81;9.30;100395.72;5080915;28;20083;-77
2022/03/21 10:30:08;;;;;;;6.43;4.38;;;;;;;26.02;9.32;100395.69;5085759;28;20050;-77
2022/03/21 10:32:42;;;;;;;8.27;4.75;;;;;;;26.35;8.81;100397.53;5081807;28;20029;-77
2022/03/21 10:35:14;;;;;;;8.38;4.95;;;;;;;27.79;7.74;100385.88;5080313;28;20039;-77
2022/03/21 10:37:42;;;;;;;7.57;4.70;;;;;;;27.89;7.92;100385.84;5090889;28;20035;-77
2022/03/21 10:40:43;;;;;;;11.52;6.10;;;;;;;23.58;10.27;100388.28;5083650;28;20032;-77
2022/03/21 10:43:14;;;;;;;11.48;5.18;;;;;;;24.10;9.97;100384.72;5076067;28;20085;-77
2022/03/21 10:45:54;;;;;;;7.60;4.32;;;;;;;24.13;10.25;100375.56;5064046;28;20024;-77
2022/03/21 10:48:22;;;;;;;8.60;5.85;;;;;;;24.63;10.13;100378.63;5080783;28;20027;-77
2022/03/21 10:50:54;;;;;;;7.75;4.40;;;;;;;23.67;10.76;100377.59;5080674;28;20040;-77
2022/03/21 10:53:27;;;;;;;10.15;5.72;;;;;;;24.68;9.42;100366.25;5077621;28;20080;-78
2022/03/21 10:56:05;;;;;;;7.65;4.53;;;;;;;23.13;9.79;100373.03;5077000;28;20036;-77
2022/03/21 10:58:42;;;;;;;8.23;5.60;;;;;;;22.54;10.35;100367.84;5078567;28;20055;-77
2022/03/21 11:01:18;;;;;;;7.55;5.15;;;;;;;22.30;11.55;100364.53;5081703;28;20123;-76
2022/03/21 11:03:49;;;;;;;15.75;4.50;;;;;;;23.44;11.07;100358.00;5079515;28;20043;-77
2022/03/21 11:06:15;;;;;;;8.57;4.50;;;;;;;24.77;9.99;100358.34;5077318;28;20033;-77
2022/03/21 11:08:43;;;;;;;4.80;3.50;;;;;;;26.46;9.02;100350.50;5079859;28;20060;-77
2022/03/21 11:11:10;;;;;;;8.48;4.97;;;;;;;24.75;9.87;100355.09;5079008;28;20055;-77
2022/03/21 11:13:38;;;;;;;8.85;4.57;;;;;;;24.11;10.04;100355.47;5080305;28;20044;-77
2022/03/21 11:16:04;;;;;;;5.75;4.00;;;;;;;23.55;10.29;100353.38;5079814;28;20058;-77
2022/03/21 11:18:30;;;;;;;4.80;3.25;;;;;;;26.10;9.14;100355.13;5080053;28;20036;-77
2022/03/21 11:20:58;;;;;;;5.55;3.17;;;;;;;26.85;8.17;100342.19;5080360;28;20028;-77
2022/03/21 11:23:27;;;;;;;10.63;4.90;;;;;;;24.28;9.34;100344.47;5082175;28;20028;-77
2022/03/21 11:26:08;;;;;;;5.30;3.65;;;;;;;25.59;9.21;100341.09;5078737;28;20028;-77
2022/03/21 11:29:11;;;;;;;6.53;3.90;;;;;;;24.83;9.03;100327.91;5074476;28;20131;-77
2022/03/21 11:32:01;;;;;;;7.50;4.90;;;;;;;23.46;10.17;100330.41;5078500;28;20032;-77
2022/03/21 11:34:42;;;;;;;9.35;4.60;;;;;;;22.18;10.74;100319.91;5084025;28;20029;-78
2022/03/21 11:37:27;;;;;;;6.22;4.03;;;;;;;23.39;9.87;100327.47;5079243;28;20370;-77
2022/03/21 11:40:26;;;;;;;6.18;3.55;;;;;;;25.80;9.19;100317.94;5078121;28;20146;-77
2022/03/21 11:42:55;;;;;;;6.35;3.67;;;;;;;26.08;8.59;100307.66;5077373;28;20044;-77